Time;durP1;ratioP1;P1;durP2;ratioP2;P2;SDS_P1;SDS_P2;PMS_P1;PMS_P2;Temp;Humidity;BMP_temperature;BMP_pressure;BME280_temperature;BME280_humidity;BME280_pressure;Samples;Min_cycle;Max_cycle;Signal;HPM_P1;HPM_P2
2021/12/04 00:00:23;;;;;;;1.88;1.63;;;;;;;;;;5085232;28;20028;-30
2021/12/04 00:02:50;;;;;;;2.58;1.88;;;;;;;;;;5084506;28;20032;-34
2021/12/04 00:05:15;;;;;;;2.38;1.70;;;;;;;;;;5084927;28;20062;-29
2021/12/04 00:07:41;;;;;;;1.67;1.50;;;;;;;;;;5085092;28;20064;-29
2021/12/04 00:10:07;;;;;;;1.65;1.48;;;;;;;;;;5085419;28;20031;-29
2021/12/04 00:12:34;;;;;;;2.58;1.75;;;;;;;;;;5084984;28;20028;-28
2021/12/04 00:15:00;;;;;;;2.00;1.58;;;;;;;;;;5080433;28;20504;-33
2021/12/04 00:17:26;;;;;;;2.53;1.67;;;;;;;;;;5064517;28;20054;-33
2021/12/04 00:19:51;;;;;;;1.52;1.33;;;;;;;;;;5065060;28;20482;-29
2021/12/04 00:22:17;;;;;;;2.13;1.60;;;;;;;;;;5064161;28;20059;-34
2021/12/04 00:24:42;;;;;;;1.48;1.38;;;;;;;;;;5064613;28;20029;-30
2021/12/04 00:27:08;;;;;;;1.58;1.35;;;;;;;;;;5064227;28;20056;-29
2021/12/04 00:29:33;;;;;;;2.30;1.52;;;;;;;;;;5064149;28;20119;-28
2021/12/04 00:32:09;;;;;;;1.73;1.60;;;;;;;;;;5064050;28;20032;-31
2021/12/04 00:34:38;;;;;;;1.52;1.40;;;;;;;;;;5063926;28;20039;-29
2021/12/04 00:50:46;;;;;;;1.30;1.20;;;;;;;;;;5063780;28;20051;-32
2021/12/04 00:53:12;;;;;;;1.63;1.50;;;;;;;;;;5063752;28;20036;-32
2021/12/04 00:55:38;;;;;;;1.60;1.50;;;;;;;;;;5063649;28;20032;-32
2021/12/04 00:58:04;;;;;;;1.88;1.50;;;;;;;;;;5063889;28;20060;-32
2021/12/04 01:00:29;;;;;;;2.00;1.80;;;;;;;;;;5062594;28;20063;-31
2021/12/04 01:02:55;;;;;;;1.90;1.70;;;;;;;;;;5063449;28;20032;-31
2021/12/04 01:05:20;;;;;;;2.08;1.65;;;;;;;;;;5063439;28;20032;-31
2021/12/04 01:07:46;;;;;;;2.08;1.67;;;;;;;;;;5063438;28;20669;-33
2021/12/04 01:10:11;;;;;;;2.08;1.70;;;;;;;;;;5063409;28;20066;-29
2021/12/04 01:12:37;;;;;;;2.42;2.00;;;;;;;;;;5063540;28;20033;-33
2021/12/04 01:15:04;;;;;;;1.85;1.67;;;;;;;;;;5064335;28;20646;-31
2021/12/04 01:17:29;;;;;;;2.00;1.80;;;;;;;;;;5063462;28;20506;-29
2021/12/04 01:19:55;;;;;;;1.90;1.70;;;;;;;;;;5063228;28;20032;-36
2021/12/04 01:22:22;;;;;;;2.22;1.85;;;;;;;;;;5063322;28;20036;-33
2021/12/04 01:24:48;;;;;;;1.95;1.75;;;;;;;;;;5063170;28;20570;-29
2021/12/04 01:27:14;;;;;;;1.60;1.50;;;;;;;;;;5063155;28;20059;-33
2021/12/04 01:29:42;;;;;;;1.83;1.60;;;;;;;;;;5063050;28;20062;-32
2021/12/04 01:32:09;;;;;;;1.83;1.40;;;;;;;;;;5063342;28;20101;-30
2021/12/04 01:34:37;;;;;;;2.30;1.90;;;;;;;;;;5062467;28;20032;-31
2021/12/04 01:37:04;;;;;;;1.67;1.50;;;;;;;;;;5062975;28;20039;-34
2021/12/04 01:39:29;;;;;;;1.80;1.55;;;;;;;;;;5063194;28;20029;-30
2021/12/04 01:41:55;;;;;;;1.95;1.67;;;;;;;;;;5063026;28;20034;-34
2021/12/04 01:44:20;;;;;;;2.17;1.80;;;;;;;;;;5063111;28;20029;-32
2021/12/04 01:46:46;;;;;;;1.60;1.50;;;;;;;;;;5062995;28;20501;-34
2021/12/04 01:49:11;;;;;;;1.40;1.30;;;;;;;;;;5062598;28;20085;-30
2021/12/04 01:51:37;;;;;;;2.00;1.60;;;;;;;;;;5063290;28;20021;-31
2021/12/04 01:54:03;;;;;;;1.90;1.70;;;;;;;;;;5062801;28;20020;-34
2021/12/04 01:56:30;;;;;;;2.72;1.42;;;;;;;;;;5062561;28;20031;-30
2021/12/04 01:58:56;;;;;;;1.50;1.30;;;;;;;;;;5062696;28;20032;-32
2021/12/04 02:01:21;;;;;;;1.35;1.25;;;;;;;;;;5062842;28;20433;-30
2021/12/04 02:03:47;;;;;;;1.77;1.30;;;;;;;;;;5062648;28;20406;-29
2021/12/04 02:06:13;;;;;;;1.42;1.17;;;;;;;;;;5062820;28;20030;-29
2021/12/04 02:08:38;;;;;;;1.75;1.52;;;;;;;;;;5062413;28;20024;-33
2021/12/04 02:11:04;;;;;;;1.90;1.60;;;;;;;;;;5062318;28;20032;-31
2021/12/04 02:13:29;;;;;;;1.40;1.30;;;;;;;;;;5069175;28;20016;-31
2021/12/04 02:15:56;;;;;;;1.73;1.50;;;;;;;;;;5086169;28;20433;-33
2021/12/04 02:18:21;;;;;;;1.55;1.30;;;;;;;;;;5089530;28;20032;-32
2021/12/04 02:20:48;;;;;;;1.42;1.20;;;;;;;;;;5089057;28;20500;-32
2021/12/04 02:23:13;;;;;;;1.60;1.40;;;;;;;;;;5089451;28;20032;-32
2021/12/04 02:25:39;;;;;;;2.95;1.20;;;;;;;;;;5089353;28;20051;-35
2021/12/04 02:28:05;;;;;;;1.20;1.10;;;;;;;;;;5089320;28;20071;-35
2021/12/04 02:30:33;;;;;;;1.42;1.20;;;;;;;;;;5070970;28;20911;-33
2021/12/04 02:32:59;;;;;;;1.30;1.20;;;;;;;;;;5089450;28;20031;-29
2021/12/04 02:35:25;;;;;;;1.50;1.35;;;;;;;;;;5089305;28;20605;-33
2021/12/04 02:37:52;;;;;;;1.30;1.10;;;;;;;;;;5089668;28;20596;-29
2021/12/04 02:40:20;;;;;;;1.30;1.20;;;;;;;;;;5089532;28;20031;-31
2021/12/04 02:42:46;;;;;;;1.42;1.33;;;;;;;;;;5088978;28;20039;-31
2021/12/04 02:45:12;;;;;;;1.30;1.20;;;;;;;;;;5089382;28;20024;-30
2021/12/04 02:47:37;;;;;;;1.88;1.38;;;;;;;;;;5089349;28;20506;-31
2021/12/04 02:50:07;;;;;;;1.20;1.10;;;;;;;;;;5088994;28;20497;-34
2021/12/04 02:52:33;;;;;;;1.40;1.30;;;;;;;;;;5089366;28;20051;-29
2021/12/04 02:54:59;;;;;;;1.63;1.30;;;;;;;;;;5089520;28;20047;-30
2021/12/04 02:57:26;;;;;;;1.27;1.15;;;;;;;;;;5089260;28;20422;-31
2021/12/04 02:59:53;;;;;;;1.30;1.20;;;;;;;;;;5089150;28;20061;-32
2021/12/04 03:02:20;;;;;;;2.40;1.25;;;;;;;;;;5089067;28;20024;-33
2021/12/04 03:04:47;;;;;;;1.77;1.30;;;;;;;;;;5089165;28;20035;-33
2021/12/04 03:07:13;;;;;;;2.70;1.20;;;;;;;;;;5089070;28;20108;-29
2021/12/04 03:09:38;;;;;;;1.42;1.10;;;;;;;;;;5089351;28;20079;-34
2021/12/04 03:12:05;;;;;;;1.13;1.00;;;;;;;;;;5088821;28;20056;-31
2021/12/04 03:14:31;;;;;;;1.50;1.20;;;;;;;;;;5065616;28;20040;-34
2021/12/04 03:16:57;;;;;;;1.15;1.05;;;;;;;;;;5068649;28;20093;-31
2021/12/04 03:19:23;;;;;;;1.20;1.05;;;;;;;;;;5050760;28;20032;-31
2021/12/04 03:21:48;;;;;;;1.27;1.10;;;;;;;;;;5068620;28;20036;-31
2021/12/04 03:24:16;;;;;;;1.58;0.98;;;;;;;;;;5065666;28;20465;-32
2021/12/04 03:26:41;;;;;;;1.10;1.00;;;;;;;;;;5065147;28;20036;-32
2021/12/04 03:29:13;;;;;;;1.20;1.00;;;;;;;;;;5065748;28;20085;-32
2021/12/04 03:42:20;;;;;;;0.98;0.90;;;;;;;;;;5065604;28;20108;-29
2021/12/04 03:44:45;;;;;;;1.60;1.20;;;;;;;;;;5064939;28;20024;-31
2021/12/04 03:47:11;;;;;;;1.25;1.15;;;;;;;;;;5065549;28;20028;-31
2021/12/04 03:49:40;;;;;;;1.73;1.10;;;;;;;;;;5064991;28;20025;-35
2021/12/04 03:52:06;;;;;;;1.10;1.00;;;;;;;;;;5065256;28;20028;-33
2021/12/04 03:54:32;;;;;;;1.23;0.95;;;;;;;;;;5064648;28;20025;-29
2021/12/04 03:57:04;;;;;;;1.20;0.90;;;;;;;;;;5064988;28;20496;-33
2021/12/04 03:59:36;;;;;;;1.27;1.15;;;;;;;;;;5064911;28;20071;-34
2021/12/04 04:02:03;;;;;;;1.10;0.93;;;;;;;;;;5064948;28;20593;-30
2021/12/04 04:04:28;;;;;;;1.23;1.00;;;;;;;;;;5064919;28;20028;-29
2021/12/04 04:06:54;;;;;;;1.30;0.93;;;;;;;;;;5064869;28;20047;-35
2021/12/04 04:09:20;;;;;;;1.13;1.00;;;;;;;;;;5064804;28;20399;-29
2021/12/04 04:11:47;;;;;;;1.40;1.10;;;;;;;;;;5064578;28;20307;-31
2021/12/04 04:14:13;;;;;;;1.35;0.93;;;;;;;;;;5067764;28;20023;-30
2021/12/04 04:16:40;;;;;;;1.40;1.08;;;;;;;;;;5084556;28;20036;-32
2021/12/04 04:19:05;;;;;;;1.60;1.20;;;;;;;;;;5084553;28;20036;-30
2021/12/04 04:21:31;;;;;;;1.60;1.20;;;;;;;;;;5084359;28;20035;-38
2021/12/04 04:23:56;;;;;;;1.42;1.00;;;;;;;;;;5084482;28;20028;-31
2021/12/04 04:26:22;;;;;;;1.33;1.00;;;;;;;;;;5084806;28;20027;-31
2021/12/04 04:28:47;;;;;;;0.90;0.80;;;;;;;;;;5084173;28;20040;-33
2021/12/04 04:31:14;;;;;;;1.05;0.95;;;;;;;;;;5084263;28;20054;-30
2021/12/04 04:33:43;;;;;;;1.25;0.95;;;;;;;;;;5084645;28;20036;-32
2021/12/04 04:58:09;;;;;;;1.10;1.00;;;;;;;;;;5063734;28;20765;-31
2021/12/04 05:13:39;;;;;;;1.20;1.02;;;;;;;;;;5064099;28;20123;-34
2021/12/04 05:16:12;;;;;;;1.67;1.20;;;;;;;;;;5083827;28;20047;-30
2021/12/04 05:18:42;;;;;;;1.40;1.17;;;;;;;;;;5083126;28;20028;-30
2021/12/04 05:21:08;;;;;;;1.20;0.90;;;;;;;;;;5083883;28;20028;-36
2021/12/04 05:23:42;;;;;;;1.60;1.20;;;;;;;;;;5083444;28;20038;-33
2021/12/04 05:26:09;;;;;;;1.73;1.10;;;;;;;;;;5083655;28;20825;-33
2021/12/04 05:28:34;;;;;;;0.93;0.80;;;;;;;;;;5083395;28;20485;-33
2021/12/04 05:31:00;;;;;;;1.50;0.90;;;;;;;;;;5082990;28;20043;-30
2021/12/04 05:33:25;;;;;;;1.00;0.77;;;;;;;;;;5083441;28;20030;-35
2021/12/04 05:35:51;;;;;;;0.95;0.85;;;;;;;;;;5083335;28;20074;-29
2021/12/04 05:38:17;;;;;;;1.02;0.90;;;;;;;;;;5083258;28;20080;-35
2021/12/04 05:40:43;;;;;;;1.27;1.08;;;;;;;;;;5083617;28;20036;-30
2021/12/04 05:43:08;;;;;;;1.20;0.80;;;;;;;;;;5083103;28;20136;-35
2021/12/04 05:45:39;;;;;;;1.35;1.10;;;;;;;;;;5082933;28;20494;-32
2021/12/04 05:55:51;;;;;;;1.20;1.02;;;;;;;;;;5082328;28;20063;-30
2021/12/04 05:58:21;;;;;;;1.50;1.30;;;;;;;;;;5083437;28;20024;-34
2021/12/04 06:00:46;;;;;;;1.50;1.08;;;;;;;;;;5081096;28;20043;-32
2021/12/04 06:03:12;;;;;;;0.80;0.80;;;;;;;;;;5075339;28;20024;-34
2021/12/04 06:05:38;;;;;;;1.10;1.00;;;;;;;;;;5082876;28;20038;-29
2021/12/04 06:08:03;;;;;;;1.58;1.27;;;;;;;;;;5083078;28;20028;-29
2021/12/04 06:10:29;;;;;;;1.77;1.20;;;;;;;;;;5080448;28;20143;-31
2021/12/04 06:12:55;;;;;;;1.33;0.90;;;;;;;;;;5079288;28;20032;-33
2021/12/04 06:15:20;;;;;;;1.25;1.00;;;;;;;;;;5079037;28;20032;-32
2021/12/04 06:17:46;;;;;;;1.23;1.02;;;;;;;;;;5082466;28;20029;-36
2021/12/04 06:22:55;;;;;;;1.42;1.17;;;;;;;;;;5078043;28;20039;-30
2021/12/04 06:25:24;;;;;;;1.33;0.82;;;;;;;;;;5078913;28;20020;-31
2021/12/04 06:27:50;;;;;;;1.10;1.00;;;;;;;;;;5064866;28;20067;-34
2021/12/04 06:30:16;;;;;;;1.40;1.10;;;;;;;;;;5062135;28;20032;-30
2021/12/04 06:32:41;;;;;;;1.42;0.88;;;;;;;;;;5062060;28;20028;-30
2021/12/04 06:35:09;;;;;;;1.33;1.08;;;;;;;;;;5063013;28;20040;-29
2021/12/04 06:37:35;;;;;;;2.03;1.23;;;;;;;;;;5062316;28;20028;-31
2021/12/04 06:40:01;;;;;;;1.52;1.02;;;;;;;;;;5062298;28;20056;-31
2021/12/04 06:42:26;;;;;;;1.20;1.00;;;;;;;;;;5062188;28;20476;-29
2021/12/04 06:44:54;;;;;;;1.60;1.20;;;;;;;;;;5062292;28;20391;-29
2021/12/04 06:47:20;;;;;;;2.13;1.00;;;;;;;;;;5068432;28;20028;-29
2021/12/04 06:49:46;;;;;;;1.80;0.98;;;;;;;;;;5072965;28;20490;-31
2021/12/04 06:52:18;;;;;;;0.93;0.80;;;;;;;;;;5072478;28;20513;-29
2021/12/04 06:54:53;;;;;;;1.17;1.00;;;;;;;;;;5074170;28;20133;-32
2021/12/04 06:57:19;;;;;;;1.40;1.05;;;;;;;;;;5062520;28;20513;-31
2021/12/04 06:59:47;;;;;;;1.88;1.10;;;;;;;;;;5076916;28;20031;-28
2021/12/04 07:02:13;;;;;;;1.13;0.98;;;;;;;;;;5085557;28;20028;-28
2021/12/04 07:04:39;;;;;;;1.80;1.20;;;;;;;;;;5085474;28;20058;-30
2021/12/04 07:07:05;;;;;;;1.13;1.02;;;;;;;;;;5085729;28;20494;-31
2021/12/04 07:09:31;;;;;;;1.00;0.90;;;;;;;;;;5085117;28;20410;-33
2021/12/04 07:11:59;;;;;;;1.92;1.20;;;;;;;;;;5085757;28;20028;-30
2021/12/04 07:14:25;;;;;;;1.00;0.90;;;;;;;;;;5084565;28;20039;-31
2021/12/04 07:16:51;;;;;;;2.00;1.30;;;;;;;;;;5085156;28;20364;-32
2021/12/04 07:19:17;;;;;;;1.63;0.93;;;;;;;;;;5085067;28;20472;-32
2021/12/04 07:21:43;;;;;;;1.73;1.15;;;;;;;;;;5082178;28;20024;-32
2021/12/04 07:24:10;;;;;;;1.40;1.15;;;;;;;;;;5082339;28;20040;-28
2021/12/04 07:26:35;;;;;;;2.42;1.00;;;;;;;;;;5065490;28;20165;-32
2021/12/04 07:29:01;;;;;;;1.48;1.15;;;;;;;;;;5084893;28;20057;-31
2021/12/04 07:31:26;;;;;;;2.13;1.10;;;;;;;;;;5074710;28;20036;-29
2021/12/04 07:33:52;;;;;;;1.50;1.10;;;;;;;;;;5064706;28;20021;-32
2021/12/04 07:36:18;;;;;;;1.10;0.98;;;;;;;;;;5064329;28;20020;-32
2021/12/04 07:38:43;;;;;;;1.70;1.20;;;;;;;;;;5064271;28;20349;-30
2021/12/04 07:41:10;;;;;;;3.17;1.17;;;;;;;;;;5084592;28;20050;-35
2021/12/04 07:43:35;;;;;;;2.42;1.40;;;;;;;;;;5078463;28;20126;-35
2021/12/04 07:46:01;;;;;;;2.90;0.90;;;;;;;;;;5067957;28;20033;-36
2021/12/04 07:48:26;;;;;;;1.17;1.08;;;;;;;;;;5076226;28;20089;-32
2021/12/04 07:50:52;;;;;;;2.58;0.90;;;;;;;;;;5066783;28;20061;-32
2021/12/04 07:53:17;;;;;;;2.15;1.02;;;;;;;;;;5064523;28;20490;-33
2021/12/04 07:55:43;;;;;;;1.85;1.20;;;;;;;;;;5064317;28;20110;-32
2021/12/04 07:58:08;;;;;;;1.48;1.00;;;;;;;;;;5070601;28;20043;-31
2021/12/04 08:00:34;;;;;;;1.45;1.00;;;;;;;;;;5084291;28;20032;-30
2021/12/04 08:03:01;;;;;;;2.15;1.30;;;;;;;;;;5084219;28;20035;-28
2021/12/04 08:05:28;;;;;;;1.75;0.90;;;;;;;;;;5084041;28;20505;-29
2021/12/04 08:07:55;;;;;;;3.97;1.00;;;;;;;;;;5084445;28;20651;-34
2021/12/04 08:10:21;;;;;;;6.05;0.80;;;;;;;;;;5082920;28;20035;-32
2021/12/04 08:12:47;;;;;;;3.50;0.77;;;;;;;;;;5083938;28;20046;-34
2021/12/04 08:15:12;;;;;;;1.70;0.88;;;;;;;;;;5064912;28;20560;-31
2021/12/04 08:17:40;;;;;;;2.42;1.00;;;;;;;;;;5083730;28;20031;-30
2021/12/04 08:20:06;;;;;;;2.38;1.10;;;;;;;;;;5083342;28;20036;-28
2021/12/04 08:22:33;;;;;;;3.47;1.15;;;;;;;;;;5083537;28;20113;-33
2021/12/04 08:24:59;;;;;;;2.28;0.98;;;;;;;;;;5083749;28;20024;-33
2021/12/04 08:27:24;;;;;;;5.53;0.98;;;;;;;;;;5084081;28;20050;-30
2021/12/04 08:29:50;;;;;;;5.60;1.05;;;;;;;;;;5053818;28;20035;-30
2021/12/04 08:32:15;;;;;;;9.20;1.65;;;;;;;;;;5075191;28;20021;-29
2021/12/04 08:34:41;;;;;;;2.20;1.30;;;;;;;;;;5053072;28;20543;-29
2021/12/04 08:37:06;;;;;;;8.27;1.10;;;;;;;;;;5076636;28;20042;-32
2021/12/04 08:39:32;;;;;;;3.85;1.13;;;;;;;;;;5059289;28;20446;-29
2021/12/04 08:41:58;;;;;;;3.30;1.40;;;;;;;;;;5061426;28;20032;-31
2021/12/04 08:44:23;;;;;;;2.33;1.42;;;;;;;;;;5074169;28;20032;-37
2021/12/04 08:46:49;;;;;;;1.80;1.27;;;;;;;;;;5073368;28;20040;-30
2021/12/04 08:49:14;;;;;;;3.15;1.30;;;;;;;;;;5083115;28;20035;-32
2021/12/04 08:51:42;;;;;;;3.13;1.40;;;;;;;;;;5083182;28;20039;-27
2021/12/04 08:54:07;;;;;;;2.03;1.25;;;;;;;;;;5065610;28;20036;-31
2021/12/04 08:56:33;;;;;;;3.20;1.35;;;;;;;;;;5063045;28;20036;-30
2021/12/04 08:58:59;;;;;;;2.42;1.20;;;;;;;;;;5063549;28;20116;-30
2021/12/04 09:01:26;;;;;;;3.42;1.60;;;;;;;;;;5062941;28;20109;-31
2021/12/04 09:03:55;;;;;;;3.83;1.15;;;;;;;;;;5063793;28;20089;-32
2021/12/04 09:06:20;;;;;;;1.50;1.13;;;;;;;;;;5063408;28;20028;-35
2021/12/04 09:08:46;;;;;;;4.45;2.05;;;;;;;;;;5079581;28;20035;-32
2021/12/04 09:11:14;;;;;;;3.15;2.30;;;;;;;;;;5083604;28;20035;-32
2021/12/04 09:13:40;;;;;;;8.10;4.50;;;;;;;;;;5082861;28;20159;-34
2021/12/04 09:16:05;;;;;;;8.95;6.18;;;;;;;;;;5080358;28;20144;-31
2021/12/04 09:18:31;;;;;;;11.32;6.70;;;;;;;;;;5056138;28;20111;-35
2021/12/04 09:20:56;;;;;;;9.40;6.80;;;;;;;;;;5074409;28;20024;-31
2021/12/04 09:23:24;;;;;;;13.40;7.40;;;;;;;;;;5083141;28;20035;-32
2021/12/04 09:25:55;;;;;;;11.45;7.90;;;;;;;;;;5077948;28;20044;-30
2021/12/04 09:28:25;;;;;;;12.63;8.52;;;;;;;;;;5062604;28;20532;-31
2021/12/04 10:00:51;;;;;;;34.10;22.65;;;;;;;;;;5082191;28;20120;-30
2021/12/04 10:03:39;;;;;;;27.20;19.88;;;;;;;;;;5075413;28;20118;-34
2021/12/04 10:11:07;;;;;;;28.80;20.73;;;;;;;;;;5081631;28;20024;-31
2021/12/04 10:15:16;;;;;;;25.55;13.15;;;;;;;;;;5072426;28;20635;-29
2021/12/04 10:20:33;;;;;;;21.02;10.68;;;;;;;;;;5081525;28;20078;-34
2021/12/04 10:33:48;;;;;;;13.73;10.02;;;;;;;;;;5084072;28;20039;-30
2021/12/04 10:36:24;;;;;;;14.00;9.75;;;;;;;;;;5085081;28;20039;-32
2021/12/04 10:38:50;;;;;;;15.48;9.02;;;;;;;;;;5068688;28;20083;-31
2021/12/04 10:41:17;;;;;;;13.68;9.07;;;;;;;;;;5050773;28;20033;-34
2021/12/04 10:43:42;;;;;;;13.38;8.98;;;;;;;;;;5064376;28;20090;-32
2021/12/04 10:46:14;;;;;;;10.68;8.65;;;;;;;;;;5064541;28;20036;-32
2021/12/04 10:48:48;;;;;;;15.38;8.88;;;;;;;;;;5047431;28;20063;-34
2021/12/04 10:51:29;;;;;;;12.82;9.18;;;;;;;;;;5065739;28;20040;-30
2021/12/04 10:53:56;;;;;;;14.07;8.07;;;;;;;;;;5065700;28;20033;-30
2021/12/04 11:42:42;;;;;;;9.93;6.50;;;;;;;;;;5064820;28;20434;-34
2021/12/04 11:45:15;;;;;;;10.50;6.80;;;;;;;;;;5064218;28;20040;-31
2021/12/04 11:47:43;;;;;;;8.75;6.68;;;;;;;;;;5079446;28;20028;-30
2021/12/04 11:50:30;;;;;;;8.82;6.60;;;;;;;;;;5085299;28;20413;-30
2021/12/04 11:53:01;;;;;;;7.95;6.43;;;;;;;;;;5085297;28;20054;-34
2021/12/04 11:55:27;;;;;;;7.93;6.30;;;;;;;;;;5084431;28;20464;-32
2021/12/04 11:57:53;;;;;;;13.27;6.80;;;;;;;;;;5084018;28;20036;-33
2021/12/04 12:00:30;;;;;;;9.52;6.30;;;;;;;;;;5084673;28;20039;-33
2021/12/04 12:03:10;;;;;;;10.30;6.80;;;;;;;;;;5085236;28;20030;-34
2021/12/04 12:05:47;;;;;;;8.25;6.38;;;;;;;;;;5085082;28;20027;-30
2021/12/04 12:08:29;;;;;;;7.35;6.18;;;;;;;;;;5084572;28;20024;-34
2021/12/04 12:10:59;;;;;;;8.00;5.93;;;;;;;;;;5084728;28;20130;-32
2021/12/04 12:13:28;;;;;;;7.40;6.10;;;;;;;;;;5083675;28;20061;-30
2021/12/04 12:15:59;;;;;;;6.90;5.90;;;;;;;;;;5085373;28;20042;-31
2021/12/04 12:18:25;;;;;;;8.32;6.03;;;;;;;;;;5084571;28;20575;-28
2021/12/04 12:20:54;;;;;;;8.35;6.25;;;;;;;;;;5084300;28;20114;-33
2021/12/04 12:23:24;;;;;;;7.28;5.65;;;;;;;;;;5050971;28;20106;-30
2021/12/04 12:34:03;;;;;;;7.40;6.00;;;;;;;;;;5084539;28;20540;-31
2021/12/04 12:36:30;;;;;;;8.57;6.05;;;;;;;;;;5084128;28;20067;-31
2021/12/04 12:39:05;;;;;;;7.40;5.53;;;;;;;;;;5084260;28;20043;-32
2021/12/04 12:41:41;;;;;;;7.55;5.72;;;;;;;;;;5084155;28;20490;-33
2021/12/04 12:44:19;;;;;;;7.20;5.30;;;;;;;;;;5085067;28;20032;-31
2021/12/04 12:46:59;;;;;;;8.23;6.20;;;;;;;;;;5084551;28;20042;-32
2021/12/04 12:49:37;;;;;;;7.40;5.80;;;;;;;;;;5083552;28;20028;-31
2021/12/04 12:52:07;;;;;;;6.22;5.40;;;;;;;;;;5083989;28;20036;-38
2021/12/04 12:54:40;;;;;;;6.60;5.20;;;;;;;;;;5084008;28;20020;-37
2021/12/04 12:57:20;;;;;;;6.57;5.57;;;;;;;;;;5084947;28;20103;-30
2021/12/04 12:59:59;;;;;;;5.97;5.35;;;;;;;;;;5083820;28;20082;-32
2021/12/04 13:13:27;;;;;;;6.80;5.20;;;;;;;;;;5083040;28;20538;-30
2021/12/04 13:15:55;;;;;;;6.80;5.72;;;;;;;;;;5084011;28;20259;-30
2021/12/04 13:18:22;;;;;;;7.53;5.65;;;;;;;;;;5083270;28;20430;-30
2021/12/04 13:20:49;;;;;;;7.53;5.10;;;;;;;;;;5083091;28;20024;-33
2021/12/04 13:23:16;;;;;;;7.10;5.50;;;;;;;;;;5084297;28;20024;-29
2021/12/04 13:26:09;;;;;;;6.90;5.32;;;;;;;;;;5083275;28;20038;-32
2021/12/04 13:28:37;;;;;;;7.68;5.88;;;;;;;;;;5082454;28;20131;-29
2021/12/04 13:31:03;;;;;;;6.80;5.35;;;;;;;;;;5082724;28;20050;-35
2021/12/04 13:33:32;;;;;;;7.38;5.55;;;;;;;;;;5082936;28;20023;-31
2021/12/04 13:35:58;;;;;;;7.38;5.80;;;;;;;;;;5063216;28;20548;-30
2021/12/04 13:38:24;;;;;;;6.55;5.22;;;;;;;;;;5062921;28;20436;-30
2021/12/04 13:40:50;;;;;;;7.10;5.75;;;;;;;;;;5062628;28;20028;-34
2021/12/04 13:43:16;;;;;;;6.45;5.22;;;;;;;;;;5062404;28;20513;-32
2021/12/04 13:45:42;;;;;;;6.88;5.40;;;;;;;;;;5063330;28;20028;-34
2021/12/04 13:48:08;;;;;;;7.10;5.32;;;;;;;;;;5063441;28;20032;-31
2021/12/04 13:53:14;;;;;;;5.80;5.20;;;;;;;;;;5062798;28;20060;-30
2021/12/04 13:55:40;;;;;;;5.32;4.82;;;;;;;;;;5062747;28;20083;-33
2021/12/04 13:58:06;;;;;;;6.60;5.70;;;;;;;;;;5062882;28;20029;-30
2021/12/04 14:00:31;;;;;;;7.18;5.80;;;;;;;;;;5061785;28;20036;-32
2021/12/04 14:02:57;;;;;;;7.43;5.85;;;;;;;;;;5063163;28;20040;-31
2021/12/04 14:05:23;;;;;;;7.25;5.72;;;;;;;;;;5062380;28;20096;-29
2021/12/04 14:07:54;;;;;;;5.70;4.82;;;;;;;;;;5061823;28;20060;-35
2021/12/04 14:10:21;;;;;;;7.88;5.90;;;;;;;;;;5062696;28;20028;-35
2021/12/04 14:12:47;;;;;;;6.32;5.47;;;;;;;;;;5063343;28;20032;-31
2021/12/04 14:15:15;;;;;;;6.32;4.93;;;;;;;;;;5062399;28;20031;-28
2021/12/04 14:17:40;;;;;;;6.05;5.00;;;;;;;;;;5062546;28;20024;-34
2021/12/04 14:20:06;;;;;;;6.45;5.57;;;;;;;;;;5062628;28;20405;-30
2021/12/04 14:22:32;;;;;;;6.60;5.07;;;;;;;;;;5062638;28;20024;-32
2021/12/04 14:25:02;;;;;;;6.90;5.38;;;;;;;;;;5062575;28;20442;-31
2021/12/04 14:27:27;;;;;;;6.22;5.07;;;;;;;;;;5062155;28;20063;-30
2021/12/04 14:29:56;;;;;;;8.07;5.80;;;;;;;;;;5062786;28;20029;-33
2021/12/04 14:32:23;;;;;;;6.45;5.47;;;;;;;;;;5062534;28;20927;-32
2021/12/04 14:35:16;;;;;;;6.75;5.40;;;;;;;;;;5062536;28;20025;-29
2021/12/04 14:37:43;;;;;;;6.47;5.47;;;;;;;;;;5062615;28;20111;-34
2021/12/04 14:40:14;;;;;;;6.95;5.40;;;;;;;;;;5062237;28;20521;-31
2021/12/04 14:42:39;;;;;;;6.82;5.63;;;;;;;;;;5061808;28;20063;-35
2021/12/04 14:45:06;;;;;;;6.45;5.32;;;;;;;;;;5062844;28;20075;-36
2021/12/04 14:47:37;;;;;;;7.32;5.75;;;;;;;;;;5062231;28;20103;-36
2021/12/04 14:50:05;;;;;;;7.60;5.78;;;;;;;;;;5062208;28;20064;-32
2021/12/04 14:52:31;;;;;;;7.10;5.80;;;;;;;;;;5061921;28;20029;-34
2021/12/04 14:54:57;;;;;;;7.38;5.63;;;;;;;;;;5062375;28;20102;-35
2021/12/04 14:57:26;;;;;;;6.57;5.28;;;;;;;;;;5062865;28;20075;-32
2021/12/04 15:00:04;;;;;;;6.65;5.43;;;;;;;;;;5062140;28;20545;-30
2021/12/04 15:02:29;;;;;;;6.78;5.18;;;;;;;;;;5061996;28;20081;-34
2021/12/04 15:04:55;;;;;;;7.32;5.82;;;;;;;;;;5062023;28;20453;-30
2021/12/04 15:07:23;;;;;;;7.40;5.50;;;;;;;;;;5062740;28;20029;-29
2021/12/04 15:09:48;;;;;;;6.97;5.43;;;;;;;;;;5062078;28;20107;-33
2021/12/04 15:12:25;;;;;;;6.10;4.88;;;;;;;;;;5061790;28;20029;-30
2021/12/04 15:14:58;;;;;;;8.55;5.80;;;;;;;;;;5081891;28;20028;-28
2021/12/04 15:17:24;;;;;;;6.97;5.78;;;;;;;;;;5082454;28;20028;-30
2021/12/04 15:19:53;;;;;;;5.90;5.30;;;;;;;;;;5082819;28;20040;-32
2021/12/04 15:22:30;;;;;;;6.97;5.30;;;;;;;;;;5085811;28;20109;-29
2021/12/04 15:24:56;;;;;;;7.38;5.93;;;;;;;;;;5085415;28;20039;-32
2021/12/04 15:27:23;;;;;;;6.53;5.32;;;;;;;;;;5085657;28;20117;-30
2021/12/04 15:29:50;;;;;;;7.07;5.50;;;;;;;;;;5085601;28;20028;-34
2021/12/04 15:32:23;;;;;;;7.78;5.70;;;;;;;;;;5067628;28;20109;-34
2021/12/04 15:34:58;;;;;;;6.68;5.43;;;;;;;;;;5085696;28;20040;-28
2021/12/04 15:37:32;;;;;;;6.05;5.22;;;;;;;;;;5085295;28;20038;-32
2021/12/04 15:39:59;;;;;;;7.13;5.47;;;;;;;;;;5085298;28;20030;-31
2021/12/04 15:48:33;;;;;;;6.18;4.75;;;;;;;;;;5085635;28;20115;-34
2021/12/04 15:53:12;;;;;;;6.95;5.15;;;;;;;;;;5085116;28;20088;-31
2021/12/04 15:55:43;;;;;;;6.43;5.50;;;;;;;;;;5051363;28;20089;-31
2021/12/04 15:58:19;;;;;;;6.32;5.18;;;;;;;;;;5067424;28;20082;-32
2021/12/04 16:00:56;;;;;;;6.63;5.05;;;;;;;;;;5084582;28;20370;-29
2021/12/04 16:03:23;;;;;;;6.35;5.32;;;;;;;;;;5085310;28;20074;-31
2021/12/04 16:05:53;;;;;;;6.32;5.40;;;;;;;;;;5084821;28;20152;-35
2021/12/04 16:08:26;;;;;;;7.15;5.80;;;;;;;;;;5084966;28;20024;-30
2021/12/04 16:10:52;;;;;;;8.15;5.80;;;;;;;;;;5085092;28;20028;-30
2021/12/04 16:13:26;;;;;;;7.40;5.85;;;;;;;;;;5065537;28;20053;-32
2021/12/04 16:15:52;;;;;;;7.60;6.13;;;;;;;;;;5084850;28;20115;-32
2021/12/04 16:18:18;;;;;;;8.32;6.28;;;;;;;;;;5085015;28;20107;-28
2021/12/04 16:20:45;;;;;;;7.63;5.93;;;;;;;;;;5084536;28;20032;-34
2021/12/04 16:23:11;;;;;;;8.57;6.18;;;;;;;;;;5084517;28;20024;-34
2021/12/04 16:25:37;;;;;;;7.45;6.45;;;;;;;;;;5084164;28;20028;-32
2021/12/04 16:33:26;;;;;;;9.43;7.47;;;;;;;;;;5084473;28;20036;-31
2021/12/04 16:38:46;;;;;;;9.75;7.55;;;;;;;;;;5037348;28;20131;-30
2021/12/04 16:41:14;;;;;;;9.80;7.57;;;;;;;;;;5084460;28;20570;-34
2021/12/04 16:43:41;;;;;;;8.82;6.90;;;;;;;;;;5084251;28;20438;-35
2021/12/04 16:46:11;;;;;;;9.88;7.63;;;;;;;;;;5083853;28;20020;-31
2021/12/04 16:48:41;;;;;;;10.85;8.20;;;;;;;;;;5084000;28;20036;-34
2021/12/04 16:58:59;;;;;;;11.23;7.97;;;;;;;;;;5083502;28;20622;-28
2021/12/04 17:01:25;;;;;;;11.25;8.68;;;;;;;;;;5083675;28;20017;-30
2021/12/04 17:03:50;;;;;;;11.32;8.45;;;;;;;;;;5083186;28;20063;-28
2021/12/04 17:06:16;;;;;;;11.15;8.43;;;;;;;;;;5083887;28;20786;-32
2021/12/04 17:08:42;;;;;;;11.23;8.35;;;;;;;;;;5083567;28;20038;-30
2021/12/04 17:11:07;;;;;;;13.85;8.35;;;;;;;;;;5083568;28;20092;-30
2021/12/04 17:13:33;;;;;;;10.90;8.65;;;;;;;;;;5082770;28;20387;-31
2021/12/04 17:15:59;;;;;;;10.77;7.47;;;;;;;;;;5083858;28;20020;-31
2021/12/04 17:18:26;;;;;;;9.93;8.10;;;;;;;;;;5083820;28;20557;-31
2021/12/04 17:20:55;;;;;;;10.15;7.70;;;;;;;;;;5083277;28;20028;-32
2021/12/04 17:23:22;;;;;;;10.63;7.85;;;;;;;;;;5082715;28;20090;-28
2021/12/04 17:25:48;;;;;;;10.13;7.93;;;;;;;;;;5083032;28;20502;-31
2021/12/04 17:28:14;;;;;;;10.73;7.72;;;;;;;;;;5083311;28;20092;-29
2021/12/04 17:30:40;;;;;;;11.70;8.30;;;;;;;;;;5083767;28;20031;-28
2021/12/04 17:33:05;;;;;;;10.07;7.57;;;;;;;;;;5083113;28;20031;-32
2021/12/04 17:35:31;;;;;;;10.95;8.05;;;;;;;;;;5083081;28;20097;-30
2021/12/04 17:37:59;;;;;;;11.85;8.45;;;;;;;;;;5083201;28;20020;-31
2021/12/04 17:40:25;;;;;;;11.18;7.97;;;;;;;;;;5083288;28;20032;-29
2021/12/04 17:42:51;;;;;;;10.30;8.05;;;;;;;;;;5082486;28;20038;-31
2021/12/04 17:45:17;;;;;;;9.73;7.72;;;;;;;;;;5083715;28;20078;-35
2021/12/04 17:47:46;;;;;;;10.40;8.00;;;;;;;;;;5083166;28;20051;-31
2021/12/04 17:50:12;;;;;;;9.90;7.53;;;;;;;;;;5082916;28;20039;-30
2021/12/04 17:52:38;;;;;;;8.95;7.25;;;;;;;;;;5083093;28;20020;-33
2021/12/04 17:55:04;;;;;;;10.30;7.60;;;;;;;;;;5082943;28;20023;-32
2021/12/04 17:57:32;;;;;;;10.20;8.43;;;;;;;;;;5082651;28;20559;-31
2021/12/04 17:59:57;;;;;;;10.90;7.78;;;;;;;;;;5082650;28;20032;-29
2021/12/04 18:02:23;;;;;;;9.43;7.47;;;;;;;;;;5083495;28;20024;-29
2021/12/04 18:04:51;;;;;;;9.32;7.35;;;;;;;;;;5082462;28;20038;-36
2021/12/04 18:07:19;;;;;;;10.10;7.57;;;;;;;;;;5082769;28;20677;-35
2021/12/04 18:09:45;;;;;;;10.00;7.20;;;;;;;;;;5082176;28;20036;-29
2021/12/04 18:12:14;;;;;;;8.95;6.85;;;;;;;;;;5081780;28;20131;-33
2021/12/04 18:14:41;;;;;;;9.07;6.88;;;;;;;;;;5082636;28;20097;-30